Terminal Aerodrome Forecast
Issued by NWS Omaha/Valley, NE

Home | Current Version | Previous Version | Text Only | Print | Product List | Glossary Off
Versions: 1 2 3 4 5 6 7 8 9 10 11 12 13 14 15 16 17

000
FTUS43 KOAX 262256 AAC
TAFOFK
TAF AMD
KOFK 262256Z 2623/2718 08007KT P6SM SCT025 BKN090
      TEMPO 2701/2704 BKN025
     FM270400 13004KT 6SM BR OVC015
     FM270800 VRB03KT 4SM BR OVC007
      TEMPO 2709/2713 1SM BR OVC003
     FM271600 18005KT P6SM BKN015
     FM271700 18006KT P6SM SCT020 SCT100=

USA.gov is the U.S. government's official web portal to all federal, state and local government web resources and services.